createdAt,value
2019-05-26T00:03:38.519Z,12.73
2019-05-26T00:09:03.907Z,12.61
2019-05-26T00:14:27.029Z,12.73
2019-05-26T00:19:51.137Z,12.77
2019-05-26T00:25:14.961Z,12.76
2019-05-26T00:30:39.254Z,12.88
2019-05-26T00:36:03.441Z,12.99
2019-05-26T00:41:26.774Z,12.95
2019-05-26T00:46:51.020Z,12.98
2019-05-26T00:52:14.501Z,12.99
2019-05-26T00:57:38.600Z,12.94
2019-05-26T01:03:02.706Z,12.93
2019-05-26T01:08:26.811Z,12.91
2019-05-26T01:13:50.956Z,12.93
2019-05-26T01:19:14.699Z,12.90
2019-05-26T01:24:38.790Z,12.94
2019-05-26T01:30:02.588Z,12.93
2019-05-26T01:35:27.304Z,12.92
2019-05-26T01:41:01.236Z,12.92
2019-05-26T01:46:25.351Z,12.88
2019-05-26T01:51:49.246Z,12.90
2019-05-26T01:57:13.244Z,12.88
2019-05-26T02:02:37.344Z,12.85
2019-05-26T02:08:01.433Z,12.83
2019-05-26T02:13:24.613Z,12.78
2019-05-26T02:18:48.409Z,12.78
2019-05-26T02:24:11.890Z,12.90
2019-05-26T02:29:35.386Z,12.93
2019-05-26T02:34:59.386Z,12.88
2019-05-26T02:40:25.237Z,12.81
2019-05-26T02:45:49.727Z,12.80
2019-05-26T02:51:14.388Z,12.78
2019-05-26T02:56:38.236Z,12.71
2019-05-26T03:02:04.580Z,12.66
2019-05-26T03:07:27.990Z,12.65
2019-05-26T03:12:54.531Z,12.59
2019-05-26T03:18:19.285Z,12.75
2019-05-26T03:23:45.064Z,12.81
2019-05-26T03:29:08.996Z,12.82
2019-05-26T03:34:33.095Z,12.85
2019-05-26T03:39:57.186Z,12.90
2019-05-26T03:45:26.516Z,12.93
2019-05-26T03:50:50.607Z,13.00
2019-05-26T03:56:14.719Z,13.05
2019-05-26T04:01:38.822Z,13.04
2019-05-26T04:07:02.926Z,13.11
2019-05-26T04:12:28.751Z,13.34
2019-05-26T04:17:52.654Z,13.33
2019-05-26T04:23:16.755Z,13.33
2019-05-26T04:28:40.935Z,13.34
2019-05-26T04:34:05.168Z,13.31
2019-05-26T04:39:29.263Z,13.38
2019-05-26T04:44:53.061Z,13.41
2019-05-26T04:50:16.874Z,13.54
2019-05-26T04:55:40.650Z,13.73
2019-05-26T05:01:04.444Z,13.89
2019-05-26T05:06:28.544Z,13.93
2019-05-26T05:11:51.022Z,13.92
2019-05-26T05:17:15.206Z,13.96
2019-05-26T05:22:39.304Z,14.07
2019-05-26T05:28:03.402Z,14.05
2019-05-26T05:33:27.101Z,14.03
2019-05-26T05:38:51.200Z,13.98
2019-05-26T05:44:15.329Z,14.19
2019-05-26T05:49:39.433Z,14.47
2019-05-26T05:55:02.885Z,14.63
2019-05-26T06:00:26.987Z,14.77
2019-05-26T06:05:51.089Z,14.93
2019-05-26T06:11:16.965Z,15.21
2019-05-26T06:16:42.362Z,15.39
2019-05-26T06:22:06.165Z,15.52
2019-05-26T06:27:29.883Z,15.73
2019-05-26T06:32:53.208Z,15.73
2019-05-26T06:38:17.333Z,15.53
2019-05-26T06:43:42.971Z,15.64
2019-05-26T06:49:09.220Z,15.55
2019-05-26T06:54:34.958Z,15.54
2019-05-26T06:59:58.962Z,15.70
2019-05-26T07:05:22.446Z,15.86
2019-05-26T07:10:46.248Z,16.17
2019-05-26T07:16:12.463Z,16.11
2019-05-26T07:21:38.437Z,16.32
2019-05-26T07:27:04.087Z,16.33
2019-05-26T07:32:28.826Z,16.10
2019-05-26T07:37:54.450Z,16.48
2019-05-26T07:43:20.091Z,16.50
2019-05-26T07:48:45.714Z,16.41
2019-05-26T07:54:24.533Z,16.26
2019-05-26T07:59:39.150Z,15.99
2019-05-26T08:05:04.784Z,16.09
2019-05-26T08:10:31.945Z,16.36
2019-05-26T08:15:56.829Z,16.59
2019-05-26T08:21:22.313Z,17.26
2019-05-26T08:26:47.945Z,17.12
2019-05-26T08:32:15.024Z,17.12
2019-05-26T08:37:40.740Z,16.99
2019-05-26T08:43:07.280Z,17.04
2019-05-26T08:48:32.921Z,17.04
2019-05-26T08:53:57.826Z,17.15
2019-05-26T08:59:23.267Z,16.94
2019-05-26T09:04:47.993Z,17.22
2019-05-26T09:10:14.265Z,17.22
2019-05-26T09:15:39.260Z,17.59
2019-05-26T09:21:03.979Z,17.71
2019-05-26T09:26:29.637Z,17.89
2019-05-26T09:31:55.362Z,17.83
2019-05-26T09:37:20.989Z,18.23
2019-05-26T09:42:46.688Z,18.47
2019-05-26T09:48:12.500Z,18.25
2019-05-26T09:53:38.213Z,18.00
2019-05-26T09:59:03.874Z,18.19
2019-05-26T10:04:29.183Z,18.26
2019-05-26T10:09:53.905Z,18.94
2019-05-26T10:15:20.448Z,18.68
2019-05-26T10:20:45.501Z,18.52
2019-05-26T10:26:10.828Z,18.47
2019-05-26T10:31:36.260Z,18.86
2019-05-26T10:37:01.896Z,19.14
2019-05-26T10:42:26.930Z,19.33
2019-05-26T10:47:52.557Z,19.50
2019-05-26T10:53:18.494Z,19.07
2019-05-26T10:58:44.141Z,19.51
2019-05-26T11:04:09.465Z,19.22
2019-05-26T11:09:35.102Z,19.46
2019-05-26T11:15:00.134Z,19.68
2019-05-26T11:20:26.376Z,19.69
2019-05-26T11:25:51.982Z,19.37
2019-05-26T11:31:17.519Z,19.40
2019-05-26T11:36:43.153Z,19.56
2019-05-26T11:42:13.400Z,19.66
2019-05-26T11:47:31.965Z,19.85
2019-05-26T11:52:56.381Z,19.40
2019-05-26T11:58:19.321Z,19.91
2019-05-26T12:03:42.739Z,20.12
2019-05-26T12:09:06.529Z,20.58
2019-05-26T12:14:34.660Z,20.74
2019-05-26T12:19:54.444Z,20.53
2019-05-26T12:25:21.195Z,20.29
2019-05-26T12:30:45.705Z,20.18
2019-05-26T12:36:11.340Z,19.79
2019-05-26T12:41:37.387Z,20.38
2019-05-26T12:47:00.772Z,20.00
2019-05-26T12:52:24.969Z,20.60
2019-05-26T12:57:48.966Z,20.73
2019-05-26T13:03:12.269Z,20.89
2019-05-26T13:08:36.595Z,20.91
2019-05-26T13:14:00.148Z,20.75
2019-05-26T13:19:23.801Z,20.59
2019-05-26T13:24:47.976Z,21.42
2019-05-26T13:30:16.689Z,21.94
2019-05-26T13:35:39.420Z,22.44
2019-05-26T13:41:03.403Z,22.40
2019-05-26T13:46:26.555Z,22.11
2019-05-26T13:51:50.727Z,22.50
2019-05-26T13:57:14.494Z,22.70
2019-05-26T14:02:37.545Z,22.77
2019-05-26T14:08:00.980Z,22.80
2019-05-26T14:13:26.019Z,23.40
2019-05-26T14:18:49.436Z,23.59
2019-05-26T14:24:13.955Z,22.62
2019-05-26T14:29:38.059Z,21.71
2019-05-26T14:35:02.825Z,21.63
2019-05-26T14:40:30.262Z,21.50
2019-05-26T14:45:54.667Z,21.40
2019-05-26T14:51:18.769Z,21.27
2019-05-26T14:56:42.567Z,21.50
2019-05-26T15:02:06.665Z,21.97
2019-05-26T15:07:29.529Z,22.49
2019-05-26T15:12:52.877Z,22.24
2019-05-26T15:18:16.191Z,21.95
2019-05-26T15:23:39.378Z,22.02
2019-05-26T15:29:03.480Z,22.21
2019-05-26T15:34:27.192Z,22.33
2019-05-26T15:39:51.688Z,21.92
2019-05-26T15:45:14.864Z,21.85
2019-05-26T15:50:37.962Z,21.92
2019-05-26T15:56:02.069Z,23.13
2019-05-26T16:01:26.139Z,23.88
2019-05-26T16:06:49.476Z,24.21
2019-05-26T16:12:13.106Z,24.54
2019-05-26T16:17:38.859Z,24.24
2019-05-26T16:23:02.097Z,23.34
2019-05-26T16:28:24.691Z,23.45
2019-05-26T16:33:48.588Z,22.99
2019-05-26T16:39:12.145Z,22.30
2019-05-26T16:44:36.224Z,21.93
2019-05-26T16:50:00.281Z,21.59
2019-05-26T16:55:24.384Z,21.39
2019-05-26T17:00:48.184Z,21.18
2019-05-26T17:06:11.356Z,21.18
2019-05-26T17:11:37.182Z,21.01
2019-05-26T17:17:14.240Z,21.10
2019-05-26T17:22:33.876Z,21.21
2019-05-26T17:28:01.740Z,21.31
2019-05-26T17:33:25.105Z,21.24
2019-05-26T17:38:48.967Z,21.12
2019-05-26T17:44:12.999Z,20.99
2019-05-26T17:49:36.400Z,20.92
2019-05-26T17:55:03.469Z,20.87
2019-05-26T18:00:30.288Z,20.84
2019-05-26T18:05:54.385Z,20.56
2019-05-26T18:11:17.767Z,20.46
2019-05-26T18:16:41.673Z,20.34
2019-05-26T18:22:05.155Z,20.26
2019-05-26T18:27:28.976Z,20.15
2019-05-26T18:32:50.845Z,20.09
2019-05-26T18:38:12.662Z,20.05
2019-05-26T18:43:37.524Z,19.97
2019-05-26T18:48:59.368Z,19.94
2019-05-26T18:54:21.118Z,19.89
2019-05-26T18:59:43.666Z,19.84
2019-05-26T19:05:05.450Z,19.77
2019-05-26T19:10:27.604Z,19.74
2019-05-26T19:15:51.123Z,19.69
2019-05-26T19:21:12.928Z,19.67
2019-05-26T19:26:40.779Z,19.62
2019-05-26T19:32:02.601Z,19.54
2019-05-26T19:37:24.523Z,19.46
2019-05-26T19:42:47.845Z,19.42
2019-05-26T19:48:09.793Z,19.39
2019-05-26T19:53:31.585Z,19.33
2019-05-26T19:59:01.759Z,19.24
2019-05-26T20:04:23.653Z,19.16
2019-05-26T20:09:45.521Z,19.07
2019-05-26T20:15:08.909Z,19.02
2019-05-26T20:20:31.094Z,18.96
2019-05-26T20:25:52.826Z,18.88
2019-05-26T20:31:14.572Z,18.82
2019-05-26T20:36:36.327Z,18.78
2019-05-26T20:41:58.042Z,18.67
2019-05-26T20:47:19.801Z,18.62
2019-05-26T20:52:42.353Z,18.60
2019-05-26T20:58:04.143Z,18.55
2019-05-26T21:03:25.858Z,18.49
2019-05-26T21:08:47.619Z,18.40
2019-05-26T21:14:09.508Z,18.30
2019-05-26T21:19:32.050Z,18.22
2019-05-26T21:24:53.808Z,18.11
2019-05-26T21:30:17.446Z,18.02
2019-05-26T21:35:39.261Z,17.99
2019-05-26T21:41:01.063Z,17.93
2019-05-26T21:46:23.130Z,17.86
2019-05-26T21:51:44.891Z,17.80
2019-05-26T21:57:06.648Z,17.74
2019-05-26T22:02:28.349Z,17.73
2019-05-26T22:07:50.032Z,17.68
2019-05-26T22:13:11.741Z,17.66
2019-05-26T22:18:33.483Z,17.64
2019-05-26T22:23:55.199Z,17.58
2019-05-26T22:29:16.994Z,17.48
2019-05-26T22:34:38.744Z,17.44
2019-05-26T22:40:00.467Z,17.48
2019-05-26T22:45:24.095Z,17.45
2019-05-26T22:50:45.795Z,17.43
2019-05-26T22:56:07.588Z,17.40
2019-05-26T23:01:29.757Z,17.38
2019-05-26T23:06:51.567Z,17.35
2019-05-26T23:12:13.382Z,17.27
2019-05-26T23:17:35.145Z,17.21
2019-05-26T23:22:56.851Z,17.13
2019-05-26T23:28:18.707Z,17.08
2019-05-26T23:33:40.435Z,17.03
2019-05-26T23:39:02.317Z,17.01
2019-05-26T23:44:24.045Z,17.10
2019-05-26T23:49:45.792Z,17.07
2019-05-26T23:55:07.513Z,17.03
